Wetterdaten: aktuell Freitag, 23.08.2019 20:30
Datum Zeit Temp. A. Luft Gew. Boden Gew. Boden A. Feuchte A. Luftdruck Regen Wind Richtung Richtung Sonnenschein ET UV Solar Taupunkt Windchill Windben Empfang
23.08.2019 20:30 20.8 C 22.2 C 0.0 C 0.0 C 73 % 1023.8 hPa 0.0 l/m 0.0 km/h (0 Bft) O-SO 109 0 min 0.051 mm 0.0 UV-I 0 W/m 15.8 C 20.8 C 0.0 km/h (0 Bft) 100.00 %
23.08.2019 19:30 22.3 C 26.1 C 0.0 C 0.0 C 68 % 1023.8 hPa 0.0 l/m 1.6 km/h (1 Bft) O 97 15 min 0.152 mm 0.0 UV-I 42 W/m 16.1 C 22.3 C 6.4 km/h (2 Bft) 99.15 %
23.08.2019 18:30 23.5 C 29.4 C 0.0 C 0.0 C 60 % 1023.7 hPa 0.0 l/m 4.1 km/h (1 Bft) NO 52 50 min 0.001 mm 0.5 UV-I 91 W/m 15.3 C 23.5 C 9.7 km/h (2 Bft) 97.44 %
23.08.2019 17:30 24.3 C 30.0 C 0.0 C 0.0 C 60 % 1023.9 hPa 0.0 l/m 6.5 km/h (2 Bft) O 90 60 min 0.330 mm 1.5 UV-I 406 W/m 16.0 C 24.3 C 14.5 km/h (3 Bft) 100.00 %
23.08.2019 16:30 24.7 C 30.0 C 0.0 C 0.0 C 58 % 1024.3 hPa 0.0 l/m 7.9 km/h (2 Bft) NO 46 60 min 0.406 mm 2.7 UV-I 601 W/m 15.9 C 24.3 C 16.1 km/h (3 Bft) 99.17 %
23.08.2019 15:30 23.9 C 28.9 C 0.0 C 0.0 C 59 % 1024.6 hPa 0.0 l/m 6.5 km/h (2 Bft) O-SO 103 60 min 0.483 mm 3.9 UV-I 585 W/m 15.4 C 23.9 C 12.9 km/h (3 Bft) 99.07 %
23.08.2019 14:30 23.9 C 28.3 C 0.0 C 0.0 C 58 % 1025.2 hPa 0.0 l/m 7.4 km/h (2 Bft) O-NO 61 60 min 0.533 mm 5.3 UV-I 780 W/m 15.1 C 23.6 C 14.5 km/h (3 Bft) 100.00 %
23.08.2019 13:30 23.5 C 27.8 C 0.0 C 0.0 C 59 % 1025.5 hPa 0.0 l/m 7.0 km/h (2 Bft) O 85 60 min 0.432 mm 5.8 UV-I 807 W/m 15.0 C 23.3 C 16.1 km/h (3 Bft) 96.58 %
23.08.2019 12:30 22.7 C 26.7 C 0.0 C 0.0 C 60 % 1026.0 hPa 0.0 l/m 8.5 km/h (2 Bft) NO 55 60 min 0.432 mm 4.5 UV-I 394 W/m 14.5 C 22.0 C 16.1 km/h (3 Bft) 100.00 %
23.08.2019 11:30 21.9 C 25.0 C 0.0 C 0.0 C 68 % 1026.4 hPa 0.0 l/m 6.5 km/h (2 Bft) O-NO 61 60 min 0.330 mm 4.6 UV-I 688 W/m 15.7 C 21.9 C 12.9 km/h (3 Bft) 100.00 %
23.08.2019 10:30 19.4 C 20.6 C 0.0 C 0.0 C 80 % 1026.7 hPa 0.0 l/m 4.8 km/h (1 Bft) NO 52 60 min 0.229 mm 3.1 UV-I 568 W/m 15.9 C 19.4 C 11.3 km/h (2 Bft) 100.00 %
23.08.2019 09:30 16.8 C 15.0 C 0.0 C 0.0 C 88 % 1026.9 hPa 0.0 l/m 2.2 km/h (1 Bft) O-SO 121 60 min 0.101 mm 1.8 UV-I 422 W/m 14.8 C 16.8 C 8.0 km/h (2 Bft) 98.29 %
23.08.2019 08:30 13.3 C 11.7 C 0.0 C 0.0 C 96 % 1027.0 hPa 0.0 l/m 0.0 km/h (0 Bft) O 88 20 min 0.051 mm 0.7 UV-I 135 W/m 12.7 C 13.3 C 0.0 km/h (0 Bft) 98.29 %
23.08.2019 07:30 10.8 C 9.4 C 0.0 C 0.0 C 96 % 1026.7 hPa 0.0 l/m 0.0 km/h (0 Bft) O 88 0 min 0.000 mm 0.0 UV-I 88 W/m 10.2 C 10.8 C 0.0 km/h (0 Bft) 100.00 %
23.08.2019 06:30 10.2 C 8.9 C 0.0 C 0.0 C 95 % 1026.6 hPa 0.0 l/m 0.0 km/h (0 Bft) O 88 0 min 0.000 mm 0.0 UV-I 6 W/m 9.4 C 10.2 C 0.0 km/h (0 Bft) 100.00 %
23.08.2019 05:30 10.3 C 9.4 C 0.0 C 0.0 C 95 % 1026.6 hPa 0.0 l/m 0.0 km/h (0 Bft) O 88 0 min 0.000 mm 0.0 UV-I 0 W/m 9.5 C 10.3 C 1.6 km/h (1 Bft) 99.15 %
23.08.2019 04:30 10.7 C 10.0 C 0.0 C 0.0 C 95 % 1026.9 hPa 0.0 l/m 0.0 km/h (0 Bft) O 88 0 min 0.000 mm 0.0 UV-I 0 W/m 9.9 C 10.7 C 0.0 km/h (0 Bft) 100.00 %
23.08.2019 03:30 11.5 C 10.0 C 0.0 C 0.0 C 95 % 1026.7 hPa 0.0 l/m 0.0 km/h (0 Bft) O 88 0 min 0.000 mm 0.0 UV-I 0 W/m 10.7 C 11.5 C 0.0 km/h (0 Bft) 95.73 %
23.08.2019 02:30 12.0 C 11.1 C 0.0 C 0.0 C 94 % 1026.7 hPa 0.0 l/m 0.0 km/h (0 Bft) O 88 0 min 0.000 mm 0.0 UV-I 0 W/m 11.1 C 12.0 C 0.0 km/h (0 Bft) 97.44 %
23.08.2019 01:30 12.4 C 11.7 C 0.0 C 0.0 C 94 % 1027.0 hPa 0.0 l/m 0.0 km/h (0 Bft) O 88 0 min 0.000 mm 0.0 UV-I 0 W/m 11.5 C 12.4 C 0.0 km/h (0 Bft) 96.58 %
23.08.2019 00:30 13.1 C 12.8 C 0.0 C 0.0 C 93 % 1027.1 hPa 0.0 l/m 0.0 km/h (0 Bft) O 88 0 min 0.000 mm 0.0 UV-I 0 W/m 12.0 C 13.1 C 0.0 km/h (0 Bft) 100.00 %
22.08.2019 23:30 13.9 C 13.9 C 0.0 C 0.0 C 91 % 1027.1 hPa 0.0 l/m 0.0 km/h (0 Bft) O 88 0 min 0.000 mm 0.0 UV-I 0 W/m 12.5 C 13.9 C 0.0 km/h (0 Bft) 100.00 %
22.08.2019 22:30 14.9 C 15.0 C 0.0 C 0.0 C 89 % 1026.9 hPa 0.0 l/m 0.0 km/h (0 Bft) O 88 0 min 0.001 mm 0.0 UV-I 0 W/m 13.1 C 14.9 C 0.0 km/h (0 Bft) 100.00 %
22.08.2019 21:30 16.3 C 17.8 C 0.0 C 0.0 C 84 % 1026.6 hPa 0.0 l/m 0.0 km/h (0 Bft) O 88 0 min 0.000 mm 0.0 UV-I 0 W/m 13.6 C 16.3 C 0.0 km/h (0 Bft) 100.00 %
22.08.2019 21:00 17.2 C 19.4 C 0.0 C 0.0 C 79 % 1026.2 hPa 0.0 l/m 0.0 km/h (0 Bft) O 88 0 min 0.000 mm 0.0 UV-I 0 W/m 13.5 C 17.2 C 0.0 km/h (0 Bft) 100.00 %
_ Min-Zeit 05:45 05:35 21:00 21:00 15:15 18:15 - 21:00 - - - - - - 05:45 05:45 21:00 01:35
Minimum _ 10.2 C 8.9 C 0.0 C 0.0 C 55 % 1023.7 hPa - 0.0 km/h (0 Bft) - - - - - - 9.4 C 10.2 C 0.0 km/h (0 Bft) 94.87 %
_ Max-Zeit 16:25 16:30 21:00 21:00 07:00 23:25 21:00 12:20 - - 08:05 14:00 13:00 13:00 10:55 16:25 15:10 21:00
Maximum _ 24.8 C 30.0 C 0.0 C 0.0 C 96 % 1027.1 hPa 0.0 l/m 9.9 km/h
O (2 Bft)
- - 5 min 0.533 mm 6.1 UV-I 950 W/m 16.3 C 24.7 C 22.5 km/h
O (4 Bft)
100.00 %
Durchschnitt _ 17.3 C 18.7 C 0.0 C 0.0 C 79 % 1026.0 hPa #0.0 l/m 2.5 km/h (1 Bft) O-NO - #10:25 h #3.810 mm 3.1 UV-I 424 W/m 13.4 C 17.3 C 5.8 km/h (1 Bft) 99.05 %